createdAt,value
2018-09-24T00:00:58.822Z,16.32
2018-09-24T00:03:27.526Z,16.38
2018-09-24T00:05:56.216Z,16.43
2018-09-24T00:08:24.911Z,16.43
2018-09-24T00:10:53.564Z,16.36
2018-09-24T00:13:22.228Z,16.45
2018-09-24T00:15:50.866Z,16.48
2018-09-24T00:18:19.563Z,16.55
2018-09-24T00:20:48.265Z,16.50
2018-09-24T00:23:16.976Z,16.56
2018-09-24T00:25:45.639Z,16.48
2018-09-24T00:28:14.548Z,16.42
2018-09-24T00:30:43.247Z,16.49
2018-09-24T00:33:11.911Z,16.45
2018-09-24T00:35:40.519Z,16.42
2018-09-24T00:38:09.219Z,16.47
2018-09-24T00:40:37.866Z,16.35
2018-09-24T00:43:06.633Z,16.14
2018-09-24T00:45:35.383Z,15.81
2018-09-24T00:48:04.463Z,15.24
2018-09-24T00:50:33.137Z,14.98
2018-09-24T00:53:02.432Z,14.71
2018-09-24T00:55:31.113Z,14.42
2018-09-24T00:57:59.845Z,14.17
2018-09-24T01:00:28.520Z,14.01
2018-09-24T01:02:57.199Z,13.90
2018-09-24T01:05:25.954Z,13.83
2018-09-24T01:07:54.607Z,13.83
2018-09-24T01:10:23.277Z,13.79
2018-09-24T01:12:52.279Z,13.75
2018-09-24T01:15:20.990Z,13.70
2018-09-24T01:17:49.723Z,13.65
2018-09-24T01:20:18.405Z,13.61
2018-09-24T01:22:47.132Z,13.54
2018-09-24T01:25:15.825Z,13.46
2018-09-24T01:27:44.467Z,13.38
2018-09-24T01:30:13.082Z,13.28
2018-09-24T01:32:41.770Z,13.25
2018-09-24T01:35:10.423Z,13.18
2018-09-24T01:37:39.145Z,13.16
2018-09-24T01:40:08.124Z,12.97
2018-09-24T01:42:36.846Z,12.88
2018-09-24T01:45:06.276Z,12.79
2018-09-24T01:47:34.961Z,12.67
2018-09-24T01:50:03.661Z,12.59
2018-09-24T01:52:32.307Z,12.51
2018-09-24T01:55:00.981Z,12.42
2018-09-24T01:57:29.623Z,12.39
2018-09-24T01:59:58.618Z,12.39
2018-09-24T02:02:27.265Z,12.30
2018-09-24T02:04:55.952Z,12.21
2018-09-24T02:07:24.669Z,12.15
2018-09-24T02:09:53.304Z,12.13
2018-09-24T02:12:21.946Z,12.12
2018-09-24T02:14:50.626Z,12.16
2018-09-24T02:17:21.543Z,12.10
2018-09-24T02:19:50.905Z,12.10
2018-09-24T02:22:28.828Z,12.03
2018-09-24T02:24:58.421Z,12.00
2018-09-24T02:27:27.439Z,12.00
2018-09-24T02:29:56.111Z,11.96
2018-09-24T02:32:24.772Z,11.98
2018-09-24T02:34:56.410Z,11.92
2018-09-24T02:37:25.115Z,11.88
2018-09-24T02:39:53.762Z,11.84
2018-09-24T02:42:22.387Z,11.84
2018-09-24T02:44:56.889Z,11.78
2018-09-24T02:47:27.613Z,11.75
2018-09-24T02:49:56.264Z,11.69
2018-09-24T02:52:24.911Z,11.60
2018-09-24T02:54:53.546Z,11.59
2018-09-24T02:57:27.775Z,11.54
2018-09-24T02:59:56.428Z,11.53
2018-09-24T03:02:25.282Z,11.51
2018-09-24T03:04:55.852Z,11.47
2018-09-24T03:07:24.666Z,11.49
2018-09-24T03:09:53.375Z,11.46
2018-09-24T03:12:22.017Z,11.44
2018-09-24T03:14:50.707Z,11.44
2018-09-24T03:17:20.023Z,11.43
2018-09-24T03:19:48.672Z,11.44
2018-09-24T03:22:20.236Z,11.46
2018-09-24T03:24:48.884Z,11.39
2018-09-24T03:27:17.596Z,11.41
2018-09-24T03:29:46.267Z,11.37
2018-09-24T03:32:14.931Z,11.39
2018-09-24T03:34:43.648Z,11.43
2018-09-24T03:37:12.323Z,11.40
2018-09-24T03:39:41.226Z,11.46
2018-09-24T03:42:09.901Z,11.42
2018-09-24T03:44:38.581Z,11.33
2018-09-24T03:47:07.228Z,11.26
2018-09-24T03:49:35.894Z,11.25
2018-09-24T03:52:04.598Z,11.23
2018-09-24T03:54:33.286Z,11.16
2018-09-24T03:57:01.972Z,11.04
2018-09-24T03:59:30.648Z,11.05
2018-09-24T04:01:59.335Z,11.04
2018-09-24T04:04:33.026Z,11.00
2018-09-24T04:07:06.675Z,10.91
2018-09-24T04:09:40.596Z,10.86
2018-09-24T04:12:14.313Z,10.86
2018-09-24T04:14:48.241Z,10.90
2018-09-24T04:17:21.982Z,10.91
2018-09-24T04:19:55.638Z,10.89
2018-09-24T04:22:29.580Z,10.89
2018-09-24T04:25:03.225Z,10.90
2018-09-24T04:27:37.132Z,10.88
2018-09-24T04:30:11.154Z,10.91
2018-09-24T04:32:45.114Z,10.95
2018-09-24T04:35:19.005Z,10.97
2018-09-24T04:40:31.964Z,11.01
2018-09-24T04:43:05.651Z,10.96
2018-09-24T04:45:39.385Z,10.97
2018-09-24T04:48:13.285Z,10.93
2018-09-24T04:50:47.188Z,10.91
2018-09-24T04:53:20.826Z,10.99
2018-09-24T04:55:54.807Z,10.97
2018-09-24T04:58:28.584Z,10.91
2018-09-24T05:03:42.111Z,10.83
2018-09-24T05:06:15.938Z,10.89
2018-09-24T05:08:49.746Z,10.88
2018-09-24T05:11:23.670Z,10.90
2018-09-24T05:13:57.491Z,10.91
2018-09-24T05:16:31.408Z,10.95
2018-09-24T05:19:05.207Z,10.93
2018-09-24T05:21:39.047Z,10.97
2018-09-24T05:24:12.956Z,11.00
2018-09-24T05:26:46.896Z,11.05
2018-09-24T05:29:21.583Z,11.15
2018-09-24T05:31:55.519Z,11.17
2018-09-24T05:34:29.329Z,11.23
2018-09-24T05:37:03.054Z,11.24
2018-09-24T05:39:36.826Z,11.24
2018-09-24T05:42:10.786Z,11.32
2018-09-24T05:44:44.489Z,11.30
2018-09-24T05:47:18.492Z,11.35
2018-09-24T05:49:52.421Z,11.32
2018-09-24T05:52:26.375Z,11.33
2018-09-24T05:55:00.186Z,11.37
2018-09-24T05:57:34.241Z,11.46
2018-09-24T06:00:08.119Z,11.52
2018-09-24T06:02:42.116Z,11.53
2018-09-24T06:05:16.039Z,11.50
2018-09-24T06:07:49.851Z,11.62
2018-09-24T06:10:23.647Z,11.62
2018-09-24T06:12:57.557Z,11.59
2018-09-24T06:15:31.355Z,11.71
2018-09-24T06:18:05.063Z,11.73
2018-09-24T06:20:38.758Z,11.78
2018-09-24T06:23:12.414Z,11.73
2018-09-24T06:25:46.262Z,11.89
2018-09-24T06:28:20.319Z,11.68
2018-09-24T06:30:54.176Z,11.74
2018-09-24T06:33:27.934Z,11.82
2018-09-24T06:36:01.665Z,11.90
2018-09-24T06:38:35.291Z,11.87
2018-09-24T06:41:10.020Z,11.86
2018-09-24T06:43:43.823Z,11.87
2018-09-24T06:46:17.522Z,11.83
2018-09-24T06:48:51.192Z,12.02
2018-09-24T06:51:25.042Z,11.95
2018-09-24T06:53:58.808Z,11.82
2018-09-24T06:56:32.767Z,11.78
2018-09-24T06:59:06.703Z,11.79
2018-09-24T07:01:40.618Z,11.67
2018-09-24T07:04:14.435Z,11.81
2018-09-24T07:06:48.162Z,11.87
2018-09-24T07:09:21.829Z,11.89
2018-09-24T07:11:55.463Z,11.93
2018-09-24T07:14:29.410Z,11.90
2018-09-24T07:17:03.088Z,11.91
2018-09-24T07:19:36.770Z,11.94
2018-09-24T07:22:10.514Z,11.95
2018-09-24T07:24:44.336Z,11.73
2018-09-24T07:27:18.017Z,11.83
2018-09-24T07:29:51.737Z,12.00
2018-09-24T07:32:25.666Z,11.99
2018-09-24T07:34:59.598Z,11.83
2018-09-24T07:37:33.374Z,11.83
2018-09-24T07:40:07.107Z,11.90
2018-09-24T07:42:40.833Z,11.88
2018-09-24T07:45:14.835Z,11.78
2018-09-24T07:47:48.482Z,11.87
2018-09-24T07:50:22.960Z,11.77
2018-09-24T07:52:56.778Z,11.79
2018-09-24T07:55:30.614Z,11.87
2018-09-24T07:58:04.425Z,11.78
2018-09-24T08:00:38.071Z,11.92
2018-09-24T08:03:11.941Z,11.87
2018-09-24T08:05:45.746Z,11.95
2018-09-24T08:08:19.427Z,12.11
2018-09-24T08:10:53.141Z,11.95
2018-09-24T08:13:27.002Z,12.10
2018-09-24T08:16:00.651Z,12.26
2018-09-24T08:18:34.374Z,12.42
2018-09-24T08:21:08.309Z,12.42
2018-09-24T08:23:41.939Z,12.49
2018-09-24T08:26:15.610Z,12.38
2018-09-24T08:28:49.484Z,12.34
2018-09-24T08:31:23.372Z,12.29
2018-09-24T08:33:57.120Z,12.43
2018-09-24T08:36:30.747Z,12.45
2018-09-24T08:39:04.475Z,12.32
2018-09-24T08:41:38.198Z,12.25
2018-09-24T08:44:12.113Z,12.27
2018-09-24T08:46:45.877Z,12.41
2018-09-24T08:49:19.514Z,12.51
2018-09-24T08:51:53.417Z,12.63
2018-09-24T08:54:27.058Z,12.64
2018-09-24T08:57:00.893Z,12.62
2018-09-24T08:59:34.515Z,12.83
2018-09-24T09:02:08.534Z,12.90
2018-09-24T09:04:42.199Z,13.08
2018-09-24T09:07:16.007Z,13.42
2018-09-24T09:09:50.011Z,13.29
2018-09-24T09:12:23.854Z,13.30
2018-09-24T09:14:57.526Z,13.09
2018-09-24T09:17:31.351Z,13.12
2018-09-24T09:20:05.046Z,13.04
2018-09-24T09:22:38.689Z,13.22
2018-09-24T09:25:12.533Z,13.17
2018-09-24T09:27:46.187Z,12.99
2018-09-24T09:30:19.848Z,13.27
2018-09-24T09:32:53.562Z,13.18
2018-09-24T09:35:27.255Z,13.24
2018-09-24T09:38:01.022Z,13.26
2018-09-24T09:40:34.762Z,13.31
2018-09-24T09:43:08.750Z,13.29
2018-09-24T09:45:42.502Z,13.39
2018-09-24T09:48:16.236Z,13.29
2018-09-24T09:50:49.980Z,13.51
2018-09-24T09:53:23.874Z,13.45
2018-09-24T09:55:57.599Z,12.84
2018-09-24T09:58:31.266Z,12.78
2018-09-24T10:01:04.895Z,12.81
2018-09-24T10:03:38.573Z,13.07
2018-09-24T10:06:12.267Z,13.41
2018-09-24T10:08:46.074Z,13.52
2018-09-24T10:11:19.800Z,13.72
2018-09-24T10:13:53.361Z,14.21
2018-09-24T10:16:27.346Z,14.40
2018-09-24T10:19:01.026Z,14.03
2018-09-24T10:21:34.631Z,14.07
2018-09-24T10:24:08.496Z,13.80
2018-09-24T10:26:42.103Z,13.71
2018-09-24T10:29:16.026Z,13.46
2018-09-24T10:31:49.877Z,13.28
2018-09-24T10:34:23.554Z,13.44
2018-09-24T10:36:57.226Z,13.58
2018-09-24T10:39:31.151Z,13.74
2018-09-24T10:42:04.908Z,14.08
2018-09-24T10:44:38.614Z,14.31
2018-09-24T10:47:12.264Z,14.43
2018-09-24T10:49:45.909Z,14.46
2018-09-24T10:52:19.676Z,14.10
2018-09-24T10:54:53.431Z,14.09
2018-09-24T10:57:27.118Z,14.01
2018-09-24T11:00:00.998Z,14.00
2018-09-24T11:02:34.923Z,14.04
2018-09-24T11:05:08.827Z,14.07
2018-09-24T11:07:42.447Z,14.14
2018-09-24T11:10:16.211Z,14.30
2018-09-24T11:12:49.867Z,14.55
2018-09-24T11:15:23.597Z,14.40
2018-09-24T11:17:57.397Z,14.50
2018-09-24T11:20:30.893Z,14.79
2018-09-24T11:23:04.562Z,15.07
2018-09-24T11:25:38.317Z,14.80
2018-09-24T11:28:12.045Z,14.58
2018-09-24T11:30:45.720Z,14.64
2018-09-24T11:33:19.414Z,14.28
2018-09-24T11:35:53.053Z,14.26
2018-09-24T11:38:26.714Z,14.52
2018-09-24T11:41:00.454Z,14.61
2018-09-24T11:43:34.186Z,14.60
2018-09-24T11:46:07.939Z,14.79
2018-09-24T11:48:41.815Z,14.85
2018-09-24T11:51:15.637Z,14.59
2018-09-24T11:53:49.422Z,14.62
2018-09-24T11:56:23.221Z,14.66
2018-09-24T11:58:56.859Z,14.61
2018-09-24T12:01:30.695Z,14.52
2018-09-24T12:04:04.552Z,14.26
2018-09-24T12:06:38.301Z,14.23
2018-09-24T12:09:13.989Z,14.42
2018-09-24T12:11:48.131Z,14.56
2018-09-24T12:14:22.069Z,14.64
2018-09-24T12:17:01.110Z,14.57
2018-09-24T12:19:34.984Z,14.94
2018-09-24T12:22:08.852Z,14.76
2018-09-24T12:24:42.917Z,14.80
2018-09-24T12:27:16.666Z,15.04
2018-09-24T12:29:50.373Z,15.04
2018-09-24T12:32:24.050Z,15.07
2018-09-24T12:34:57.782Z,15.45
2018-09-24T12:37:31.478Z,15.41
2018-09-24T12:40:05.357Z,15.48
2018-09-24T12:42:39.193Z,15.72
2018-09-24T12:45:12.873Z,15.87
2018-09-24T12:47:46.778Z,16.09
2018-09-24T12:50:20.597Z,16.30
2018-09-24T12:52:54.468Z,16.02
2018-09-24T12:55:28.372Z,15.96
2018-09-24T12:58:02.314Z,16.06
2018-09-24T13:00:35.974Z,15.67
2018-09-24T13:03:09.638Z,15.33
2018-09-24T13:05:43.530Z,15.30
2018-09-24T13:08:17.350Z,15.38
2018-09-24T13:10:51.042Z,15.44
2018-09-24T13:13:24.707Z,15.06
2018-09-24T13:15:58.367Z,14.97
2018-09-24T13:18:32.040Z,15.02
2018-09-24T13:21:05.826Z,14.83
2018-09-24T13:23:39.548Z,15.08
2018-09-24T13:26:13.485Z,15.13
2018-09-24T13:28:47.193Z,15.36
2018-09-24T13:31:20.854Z,15.31
2018-09-24T13:33:54.689Z,15.51
2018-09-24T13:36:28.410Z,15.66
2018-09-24T13:39:02.145Z,15.72
2018-09-24T13:41:35.994Z,15.81
2018-09-24T13:44:09.659Z,16.06
2018-09-24T13:46:43.545Z,16.17
2018-09-24T13:49:17.282Z,16.32
2018-09-24T13:51:51.028Z,16.43
2018-09-24T13:54:24.891Z,16.08
2018-09-24T13:56:58.686Z,15.81
2018-09-24T13:59:32.308Z,15.44
2018-09-24T14:02:05.995Z,15.19
2018-09-24T14:04:39.648Z,14.41
2018-09-24T14:07:13.444Z,13.70
2018-09-24T14:09:47.101Z,13.23
2018-09-24T14:12:20.800Z,13.11
2018-09-24T14:14:54.507Z,13.22
2018-09-24T14:17:28.186Z,13.85
2018-09-24T14:20:01.845Z,15.25
2018-09-24T14:22:35.559Z,15.23
2018-09-24T14:25:09.285Z,15.49
2018-09-24T14:27:42.927Z,16.21
2018-09-24T14:30:16.581Z,16.69
2018-09-24T14:32:50.284Z,17.41
2018-09-24T14:35:23.942Z,17.83
2018-09-24T14:37:57.638Z,17.63
2018-09-24T14:40:31.249Z,17.87
2018-09-24T14:43:04.961Z,18.10
2018-09-24T14:45:38.711Z,17.94
2018-09-24T14:48:12.444Z,18.56
2018-09-24T14:50:46.092Z,17.81
2018-09-24T14:53:19.949Z,17.08
2018-09-24T14:55:53.590Z,15.77
2018-09-24T14:58:27.301Z,15.13
2018-09-24T15:01:01.029Z,14.59
2018-09-24T15:03:34.774Z,14.06
2018-09-24T15:06:08.731Z,13.90
2018-09-24T15:08:42.620Z,13.96
2018-09-24T15:11:16.454Z,14.59
2018-09-24T15:13:50.264Z,16.36
2018-09-24T15:16:24.132Z,17.89
2018-09-24T15:18:57.714Z,18.79
2018-09-24T15:21:31.414Z,19.04
2018-09-24T15:24:05.336Z,19.37
2018-09-24T15:26:39.236Z,19.61
2018-09-24T15:29:12.998Z,19.89
2018-09-24T15:31:46.721Z,19.85
2018-09-24T15:34:20.506Z,18.69
2018-09-24T15:36:54.275Z,17.62
2018-09-24T15:39:28.102Z,16.74
2018-09-24T15:42:01.974Z,15.49
2018-09-24T15:44:35.838Z,14.81
2018-09-24T15:47:09.781Z,14.28
2018-09-24T15:49:43.579Z,14.03
2018-09-24T15:52:17.274Z,13.55
2018-09-24T15:54:50.894Z,13.45
2018-09-24T15:57:24.731Z,13.28
2018-09-24T15:59:58.600Z,13.60
2018-09-24T16:02:32.358Z,15.10
2018-09-24T16:05:06.040Z,15.62
2018-09-24T16:07:39.982Z,15.17
2018-09-24T16:10:13.629Z,15.06
2018-09-24T16:12:47.267Z,14.05
2018-09-24T16:15:21.150Z,13.48
2018-09-24T16:17:54.811Z,13.15
2018-09-24T16:20:28.524Z,12.93
2018-09-24T16:23:02.381Z,12.93
2018-09-24T16:25:36.298Z,12.94
2018-09-24T16:28:09.935Z,12.86
2018-09-24T16:30:43.874Z,12.80
2018-09-24T16:33:17.544Z,12.71
2018-09-24T16:35:51.209Z,12.72
2018-09-24T16:38:24.900Z,12.64
2018-09-24T16:40:58.665Z,12.61
2018-09-24T16:43:32.461Z,12.58
2018-09-24T16:46:06.168Z,12.46
2018-09-24T16:48:39.995Z,12.21
2018-09-24T16:51:13.662Z,12.12
2018-09-24T16:53:47.558Z,12.00
2018-09-24T16:56:21.525Z,11.95
2018-09-24T16:58:55.373Z,11.88
2018-09-24T17:01:28.994Z,11.79
2018-09-24T17:04:02.737Z,11.77
2018-09-24T17:06:36.498Z,11.71
2018-09-24T17:09:12.441Z,11.64
2018-09-24T17:11:46.092Z,11.62
2018-09-24T17:14:19.791Z,11.58
2018-09-24T17:16:53.420Z,11.52
2018-09-24T17:19:27.094Z,11.54
2018-09-24T17:22:00.918Z,11.50
2018-09-24T17:24:34.638Z,11.52
2018-09-24T17:27:08.530Z,11.49
2018-09-24T17:29:42.416Z,11.50
2018-09-24T17:32:16.190Z,11.47
2018-09-24T17:34:49.959Z,11.50
2018-09-24T17:37:23.620Z,11.45
2018-09-24T17:39:57.344Z,11.34
2018-09-24T17:42:30.990Z,11.34
2018-09-24T17:45:04.850Z,11.34
2018-09-24T17:47:38.702Z,11.32
2018-09-24T17:50:12.616Z,11.28
2018-09-24T17:52:46.502Z,11.27
2018-09-24T17:55:20.402Z,11.31
2018-09-24T17:57:54.182Z,11.21
2018-09-24T18:00:28.018Z,11.28
2018-09-24T18:03:01.826Z,11.25
2018-09-24T18:05:35.581Z,11.22
2018-09-24T18:08:09.283Z,11.17
2018-09-24T18:10:43.271Z,11.05
2018-09-24T18:13:17.219Z,11.06
2018-09-24T18:15:51.030Z,11.12
2018-09-24T18:18:24.965Z,11.21
2018-09-24T18:20:58.882Z,11.27
2018-09-24T18:23:32.591Z,11.26
2018-09-24T18:26:06.291Z,11.22
2018-09-24T18:28:40.041Z,11.27
2018-09-24T18:31:13.821Z,11.31
2018-09-24T18:33:47.605Z,11.32
2018-09-24T18:36:21.252Z,11.47
2018-09-24T18:38:54.897Z,11.43
2018-09-24T18:41:28.667Z,11.40
2018-09-24T18:44:02.625Z,11.36
2018-09-24T18:46:36.271Z,11.42
2018-09-24T18:49:10.345Z,11.33
2018-09-24T18:51:44.134Z,11.40
2018-09-24T18:54:17.777Z,11.54
2018-09-24T18:56:51.574Z,11.53
2018-09-24T18:59:25.490Z,11.45
2018-09-24T19:05:03.411Z,11.43
2018-09-24T19:07:37.556Z,11.44
2018-09-24T19:10:11.739Z,11.38
2018-09-24T19:12:45.547Z,11.29
2018-09-24T19:15:19.708Z,11.24
2018-09-24T19:17:53.739Z,11.27
2018-09-24T19:20:27.574Z,11.24
2018-09-24T19:23:01.447Z,11.25
2018-09-24T19:25:35.406Z,11.22
2018-09-24T19:28:09.460Z,11.22
2018-09-24T19:30:43.353Z,11.17
2018-09-24T19:33:17.450Z,11.14
2018-09-24T19:35:51.409Z,11.08
2018-09-24T19:38:25.909Z,11.11
2018-09-24T19:40:59.926Z,11.11
2018-09-24T19:43:33.826Z,11.03
2018-09-24T19:46:07.943Z,11.07
2018-09-24T19:48:41.783Z,11.15
2018-09-24T19:51:22.647Z,11.11
2018-09-24T19:53:56.400Z,11.09
2018-09-24T19:56:30.278Z,11.05
2018-09-24T19:59:04.419Z,11.24
2018-09-24T20:01:38.321Z,11.26
2018-09-24T20:04:12.165Z,11.19
2018-09-24T20:06:46.189Z,11.22
2018-09-24T20:09:20.003Z,11.29
2018-09-24T20:11:53.770Z,11.25
2018-09-24T20:14:27.701Z,11.28
2018-09-24T20:17:01.686Z,11.27
2018-09-24T20:19:35.538Z,11.26
2018-09-24T20:22:10.830Z,11.24
2018-09-24T20:24:44.533Z,11.22
2018-09-24T20:27:18.525Z,11.22
2018-09-24T20:29:52.653Z,11.16
2018-09-24T20:32:27.030Z,11.12
2018-09-24T20:35:00.851Z,11.04
2018-09-24T20:37:34.938Z,11.00
2018-09-24T20:40:08.779Z,11.02
2018-09-24T20:42:42.737Z,10.95
2018-09-24T20:45:16.719Z,10.84
2018-09-24T20:47:50.611Z,10.89
2018-09-24T20:50:24.512Z,10.88
2018-09-24T20:52:58.370Z,10.91
2018-09-24T20:55:32.257Z,10.99
2018-09-24T20:58:06.123Z,10.89
2018-09-24T21:00:40.038Z,10.84
2018-09-24T21:03:13.834Z,10.84
2018-09-24T21:05:48.146Z,10.71
2018-09-24T21:08:22.088Z,10.90
2018-09-24T21:10:55.832Z,10.82
2018-09-24T21:13:30.203Z,10.82
2018-09-24T21:16:04.393Z,10.95
2018-09-24T21:18:38.450Z,10.91
2018-09-24T21:21:12.579Z,10.95
2018-09-24T21:23:46.714Z,10.95
2018-09-24T21:26:20.696Z,10.96
2018-09-24T21:28:54.538Z,10.84
2018-09-24T21:31:29.015Z,10.85
2018-09-24T21:34:02.987Z,10.78
2018-09-24T21:36:36.761Z,10.80
2018-09-24T21:39:13.025Z,10.87
2018-09-24T21:41:47.001Z,10.81
2018-09-24T21:44:20.913Z,10.81
2018-09-24T21:46:54.881Z,10.83
2018-09-24T21:49:28.685Z,10.78
2018-09-24T21:52:02.568Z,10.71
2018-09-24T21:54:36.293Z,10.68
2018-09-24T21:57:09.993Z,10.67
2018-09-24T21:59:43.941Z,10.60
2018-09-24T22:02:18.010Z,10.62
2018-09-24T22:04:52.050Z,10.63
2018-09-24T22:07:25.966Z,10.67
2018-09-24T22:09:59.808Z,10.57
2018-09-24T22:12:33.670Z,10.58
2018-09-24T22:15:07.670Z,10.58
2018-09-24T22:17:41.490Z,10.53
2018-09-24T22:20:15.281Z,10.54
2018-09-24T22:22:49.122Z,10.57
2018-09-24T22:25:23.100Z,10.50
2018-09-24T22:27:56.892Z,10.53
2018-09-24T22:30:30.598Z,10.45
2018-09-24T22:33:04.551Z,10.46
2018-09-24T22:35:38.228Z,10.36
2018-09-24T22:38:12.165Z,10.33
2018-09-24T22:40:46.808Z,10.39
2018-09-24T22:43:21.307Z,10.32
2018-09-24T22:45:55.197Z,10.29
2018-09-24T22:48:29.006Z,10.26
2018-09-24T22:51:03.010Z,10.24
2018-09-24T22:53:36.854Z,10.23
2018-09-24T22:56:10.809Z,10.20
2018-09-24T22:58:44.852Z,10.15
2018-09-24T23:01:18.880Z,10.18
2018-09-24T23:03:52.794Z,10.14
2018-09-24T23:06:26.762Z,10.18
2018-09-24T23:09:00.757Z,10.13
2018-09-24T23:11:34.577Z,10.18
2018-09-24T23:14:08.458Z,10.19
2018-09-24T23:16:42.337Z,10.19
2018-09-24T23:19:18.189Z,10.19
2018-09-24T23:21:51.965Z,10.15
2018-09-24T23:24:25.598Z,10.15
2018-09-24T23:26:59.324Z,10.08
2018-09-24T23:29:33.215Z,10.07
2018-09-24T23:32:07.156Z,10.11
2018-09-24T23:34:41.076Z,10.04
2018-09-24T23:37:14.942Z,10.01
2018-09-24T23:39:48.627Z,10.13
2018-09-24T23:42:22.441Z,10.30
2018-09-24T23:44:56.236Z,10.28
2018-09-24T23:47:30.020Z,10.33
2018-09-24T23:50:03.868Z,10.34
2018-09-24T23:52:37.628Z,10.37
2018-09-24T23:55:11.321Z,10.36
2018-09-24T23:57:45.214Z,10.37
